createdAt,value
2022-12-18T00:01:23.161Z,-6.49
2022-12-18T00:03:50.708Z,-6.50
2022-12-18T00:06:17.969Z,-6.54
2022-12-18T00:08:45.731Z,-6.62
2022-12-18T00:11:15.230Z,-6.65
2022-12-18T00:13:43.013Z,-6.63
2022-12-18T00:16:13.088Z,-6.61
2022-12-18T00:18:40.935Z,-6.58
2022-12-18T00:21:09.946Z,-6.62
2022-12-18T00:23:38.851Z,-6.77
2022-12-18T00:26:08.677Z,-6.79
2022-12-18T00:28:35.425Z,-6.78
2022-12-18T00:31:03.366Z,-6.75
2022-12-18T00:33:30.464Z,-6.68
2022-12-18T00:36:09.945Z,-6.63
2022-12-18T00:38:37.475Z,-6.47
2022-12-18T00:41:05.346Z,-6.52
2022-12-18T00:43:36.035Z,-6.52
2022-12-18T00:46:03.556Z,-6.55
2022-12-18T00:48:30.477Z,-6.58
2022-12-18T00:50:57.373Z,-6.63
2022-12-18T00:53:24.400Z,-6.69
2022-12-18T00:55:51.104Z,-6.62
2022-12-18T00:58:17.934Z,-6.61
2022-12-18T01:00:44.896Z,-6.72
2022-12-18T01:03:15.161Z,-6.74
2022-12-18T01:05:43.420Z,-6.67
2022-12-18T01:08:10.538Z,-6.59
2022-12-18T01:10:37.360Z,-6.58
2022-12-18T01:13:04.096Z,-6.69
2022-12-18T01:15:30.807Z,-6.82
2022-12-18T01:17:57.772Z,-6.89
2022-12-18T01:20:24.579Z,-6.92
2022-12-18T01:22:51.267Z,-6.97
2022-12-18T01:25:18.150Z,-7.01
2022-12-18T01:27:45.014Z,-7.11
2022-12-18T01:30:12.055Z,-7.09
2022-12-18T01:32:38.732Z,-6.98
2022-12-18T01:35:06.342Z,-6.93
2022-12-18T01:37:33.275Z,-6.95
2022-12-18T01:40:00.145Z,-6.91
2022-12-18T01:42:26.946Z,-6.82
2022-12-18T01:44:56.751Z,-6.81
2022-12-18T01:47:37.708Z,-6.74
2022-12-18T01:50:13.596Z,-6.72
2022-12-18T01:52:43.560Z,-6.70
2022-12-18T01:55:11.944Z,-6.64
2022-12-18T01:57:40.022Z,-6.73
2022-12-18T02:00:14.368Z,-6.78
2022-12-18T02:02:46.273Z,-6.75
2022-12-18T02:05:17.897Z,-6.68
2022-12-18T02:07:56.336Z,-6.68
2022-12-18T02:10:26.060Z,-6.77
2022-12-18T02:13:28.129Z,-6.78
2022-12-18T02:16:11.564Z,-6.86
2022-12-18T02:18:42.752Z,-6.86
2022-12-18T02:21:31.369Z,-6.71
2022-12-18T02:24:35.833Z,-6.68
2022-12-18T02:27:07.483Z,-6.61
2022-12-18T02:29:41.457Z,-6.56
2022-12-18T02:32:19.115Z,-6.50
2022-12-18T02:34:48.216Z,-6.49
2022-12-18T02:37:18.823Z,-6.43
2022-12-18T02:39:49.651Z,-6.41
2022-12-18T02:42:18.494Z,-6.46
2022-12-18T02:44:51.587Z,-6.56
2022-12-18T02:47:24.400Z,-6.62
2022-12-18T02:49:57.461Z,-6.56
2022-12-18T02:52:45.826Z,-6.57
2022-12-18T02:55:50.338Z,-6.64
2022-12-18T02:58:21.905Z,-6.63
2022-12-18T03:00:59.583Z,-6.53
2022-12-18T03:03:33.638Z,-6.43
2022-12-18T03:06:27.489Z,-6.42
2022-12-18T03:08:59.494Z,-6.35
2022-12-18T03:11:47.921Z,-6.39
2022-12-18T03:14:18.402Z,-6.34
2022-12-18T03:16:47.301Z,-6.36
2022-12-18T03:19:19.396Z,-6.35
2022-12-18T03:21:50.702Z,-6.36
2022-12-18T03:24:19.869Z,-6.45
2022-12-18T03:26:50.331Z,-6.48
2022-12-18T03:29:23.152Z,-6.44
2022-12-18T03:31:56.490Z,-6.42
2022-12-18T03:34:30.131Z,-6.46
2022-12-18T03:36:56.972Z,-6.54
2022-12-18T03:39:23.852Z,-6.49
2022-12-18T03:42:06.203Z,-6.54
2022-12-18T03:44:40.938Z,-6.51
2022-12-18T03:47:16.733Z,-6.56
2022-12-18T03:50:13.373Z,-6.63
2022-12-18T03:52:49.473Z,-6.71
2022-12-18T03:55:17.536Z,-6.77
2022-12-18T03:57:45.786Z,-6.77
2022-12-18T04:00:18.847Z,-6.65
2022-12-18T04:02:53.994Z,-6.69
2022-12-18T04:05:22.078Z,-6.77
2022-12-18T04:07:50.822Z,-6.83
2022-12-18T04:10:18.696Z,-6.79
2022-12-18T04:12:45.657Z,-6.81
2022-12-18T04:15:13.622Z,-6.76
2022-12-18T04:17:50.215Z,-6.70
2022-12-18T04:20:17.914Z,-6.71
2022-12-18T04:22:44.638Z,-6.69
2022-12-18T04:25:12.747Z,-6.73
2022-12-18T04:27:39.619Z,-6.69
2022-12-18T04:30:07.078Z,-6.74
2022-12-18T04:32:35.283Z,-6.71
2022-12-18T04:35:02.982Z,-6.67
2022-12-18T04:37:29.658Z,-6.69
2022-12-18T04:39:56.318Z,-6.71
2022-12-18T04:42:23.024Z,-6.68
2022-12-18T04:44:49.789Z,-6.67
2022-12-18T04:47:16.547Z,-6.68
2022-12-18T04:49:43.242Z,-6.67
2022-12-18T04:52:09.902Z,-6.74
2022-12-18T04:54:36.788Z,-6.78
2022-12-18T04:57:03.620Z,-6.70
2022-12-18T04:59:30.348Z,-6.65
2022-12-18T05:01:57.175Z,-6.65
2022-12-18T05:04:24.009Z,-6.76
2022-12-18T05:06:50.738Z,-6.72
2022-12-18T05:09:17.412Z,-6.71
2022-12-18T05:11:47.545Z,-6.64
2022-12-18T05:14:14.245Z,-6.62
2022-12-18T05:16:41.068Z,-6.61
2022-12-18T05:19:07.777Z,-6.56
2022-12-18T05:21:34.538Z,-6.51
2022-12-18T05:24:01.262Z,-6.52
2022-12-18T05:26:27.948Z,-6.64
2022-12-18T05:28:54.802Z,-6.62
2022-12-18T05:31:21.587Z,-6.63
2022-12-18T05:33:48.380Z,-6.64
2022-12-18T05:36:15.238Z,-6.73
2022-12-18T05:38:42.052Z,-6.77
2022-12-18T05:41:09.970Z,-6.74
2022-12-18T05:43:38.598Z,-6.73
2022-12-18T05:46:13.068Z,-6.76
2022-12-18T05:48:40.011Z,-6.89
2022-12-18T05:51:12.946Z,-6.98
2022-12-18T05:53:40.349Z,-6.92
2022-12-18T05:56:13.753Z,-6.96
2022-12-18T05:58:40.642Z,-6.93
2022-12-18T06:01:12.339Z,-6.87
2022-12-18T06:03:40.123Z,-6.83
2022-12-18T06:06:33.628Z,-6.86
2022-12-18T06:09:02.257Z,-6.86
2022-12-18T06:11:28.992Z,-6.84
2022-12-18T06:13:59.175Z,-6.85
2022-12-18T06:16:27.242Z,-6.93
2022-12-18T06:18:54.629Z,-6.92
2022-12-18T06:21:21.378Z,-6.80
2022-12-18T06:23:48.047Z,-6.70
2022-12-18T06:26:15.176Z,-6.72
2022-12-18T06:28:42.255Z,-6.71
2022-12-18T06:31:10.044Z,-6.76
2022-12-18T06:33:38.389Z,-6.76
2022-12-18T06:36:12.304Z,-6.76
2022-12-18T06:38:41.713Z,-6.75
2022-12-18T06:41:10.369Z,-6.77
2022-12-18T06:43:37.708Z,-6.58
2022-12-18T06:46:07.213Z,-6.46
2022-12-18T06:48:34.020Z,-6.36
2022-12-18T06:51:00.730Z,-6.30
2022-12-18T06:53:27.688Z,-6.29
2022-12-18T06:56:06.441Z,-6.27
2022-12-18T06:58:36.194Z,-6.23
2022-12-18T07:01:05.461Z,-6.27
2022-12-18T07:03:32.377Z,-6.27
2022-12-18T07:05:59.193Z,-6.35
2022-12-18T07:08:25.977Z,-6.44
2022-12-18T07:10:56.253Z,-6.62
2022-12-18T07:13:23.930Z,-6.69
2022-12-18T07:15:50.577Z,-6.71
2022-12-18T07:18:17.371Z,-6.76
2022-12-18T07:20:45.113Z,-6.81
2022-12-18T07:23:12.888Z,-6.81
2022-12-18T07:25:40.375Z,-6.82
2022-12-18T07:28:07.147Z,-6.83
2022-12-18T07:30:34.220Z,-6.85
2022-12-18T07:33:01.044Z,-6.86
2022-12-18T07:35:27.812Z,-6.85
2022-12-18T07:37:54.805Z,-6.85
2022-12-18T07:40:21.530Z,-6.83
2022-12-18T07:42:48.293Z,-6.93
2022-12-18T07:45:15.301Z,-6.95
2022-12-18T07:47:43.353Z,-6.96
2022-12-18T07:50:10.399Z,-6.90
2022-12-18T07:52:37.138Z,-6.87
2022-12-18T07:55:04.357Z,-6.88
2022-12-18T07:57:49.899Z,-6.86
2022-12-18T08:00:17.459Z,-6.88
2022-12-18T08:02:44.268Z,-6.95
2022-12-18T08:05:11.004Z,-6.93
2022-12-18T08:07:37.677Z,-6.91
2022-12-18T08:10:04.709Z,-6.87
2022-12-18T08:12:33.438Z,-6.82
2022-12-18T08:15:00.164Z,-6.83
2022-12-18T08:17:26.902Z,-6.84
2022-12-18T08:19:53.605Z,-6.81
2022-12-18T08:22:20.389Z,-6.87
2022-12-18T08:24:47.064Z,-6.76
2022-12-18T08:27:28.805Z,-6.77
2022-12-18T08:29:57.251Z,-6.81
2022-12-18T08:32:24.845Z,-6.92
2022-12-18T08:34:51.637Z,-6.93
2022-12-18T08:37:18.310Z,-6.83
2022-12-18T08:39:45.188Z,-6.82
2022-12-18T08:42:30.592Z,-6.72
2022-12-18T08:44:57.775Z,-6.58
2022-12-18T08:47:24.570Z,-6.56
2022-12-18T08:49:51.632Z,-6.42
2022-12-18T08:52:18.392Z,-6.39
2022-12-18T08:54:45.221Z,-6.34
2022-12-18T08:57:11.898Z,-6.25
2022-12-18T08:59:38.671Z,-6.07
2022-12-18T09:02:05.492Z,-5.96
2022-12-18T09:04:32.380Z,-5.89
2022-12-18T09:06:59.103Z,-5.84
2022-12-18T09:09:25.835Z,-5.74
2022-12-18T09:11:52.608Z,-5.73
2022-12-18T09:14:19.303Z,-5.80
2022-12-18T09:16:46.139Z,-5.68
2022-12-18T09:19:13.087Z,-5.59
2022-12-18T09:21:46.094Z,-5.55
2022-12-18T09:24:16.000Z,-5.39
2022-12-18T09:26:43.493Z,-5.29
2022-12-18T09:29:13.742Z,-5.21
2022-12-18T09:31:40.602Z,-5.16
2022-12-18T09:34:08.095Z,-5.03
2022-12-18T09:36:35.143Z,-4.95
2022-12-18T09:39:07.569Z,-4.97
2022-12-18T09:41:41.544Z,-4.77
2022-12-18T09:44:28.932Z,-4.60
2022-12-18T09:47:05.310Z,-4.46
2022-12-18T09:49:36.986Z,-4.37
2022-12-18T09:52:16.939Z,-4.22
2022-12-18T09:55:06.440Z,-4.31
2022-12-18T09:57:36.592Z,-4.27
2022-12-18T10:00:14.712Z,-4.11
2022-12-18T10:02:41.705Z,-4.02
2022-12-18T10:05:15.940Z,-4.00
2022-12-18T10:07:48.232Z,-4.02
2022-12-18T10:10:35.861Z,-3.90
2022-12-18T10:13:17.655Z,-3.89
2022-12-18T10:16:09.743Z,-3.84
2022-12-18T10:18:49.439Z,-3.87
2022-12-18T10:21:26.528Z,-3.85
2022-12-18T10:24:17.069Z,-3.79
2022-12-18T10:26:45.098Z,-3.72
2022-12-18T10:29:17.256Z,-3.74
2022-12-18T10:31:44.411Z,-3.64
2022-12-18T10:34:12.167Z,-3.57
2022-12-18T10:36:39.239Z,-3.60
2022-12-18T10:39:18.475Z,-3.59
2022-12-18T10:41:45.707Z,-3.54
2022-12-18T10:44:21.041Z,-3.41
2022-12-18T10:46:51.111Z,-3.38
2022-12-18T10:49:24.725Z,-3.33
2022-12-18T10:51:52.921Z,-3.26
2022-12-18T10:54:23.597Z,-3.12
2022-12-18T10:56:50.658Z,-3.08
2022-12-18T10:59:18.889Z,-3.05
2022-12-18T11:01:58.190Z,-2.95
2022-12-18T11:04:31.251Z,-2.85
2022-12-18T11:07:04.054Z,-2.74
2022-12-18T11:09:36.582Z,-2.68
2022-12-18T11:12:13.923Z,-2.60
2022-12-18T11:14:49.846Z,-2.58
2022-12-18T11:17:31.660Z,-2.54
2022-12-18T11:20:23.522Z,-2.43
2022-12-18T11:23:05.642Z,-2.32
2022-12-18T11:25:35.382Z,-2.20
2022-12-18T11:28:27.007Z,-2.14
2022-12-18T11:31:23.536Z,-2.04
2022-12-18T11:36:49.160Z,-1.99
2022-12-18T11:39:30.374Z,-1.88
2022-12-18T11:42:10.811Z,-1.84
2022-12-18T11:45:03.290Z,-1.78
2022-12-18T11:47:36.768Z,-1.75
2022-12-18T11:50:12.800Z,-1.69
2022-12-18T11:52:41.749Z,-1.58
2022-12-18T11:55:25.585Z,-1.52
2022-12-18T11:58:02.503Z,-1.38
2022-12-18T12:00:29.732Z,-1.35
2022-12-18T12:03:14.764Z,-1.31
2022-12-18T12:06:00.303Z,-1.26
2022-12-18T12:08:33.194Z,-1.13
2022-12-18T12:11:09.675Z,-1.09
2022-12-18T12:14:04.356Z,-1.13
2022-12-18T12:16:40.808Z,-1.06
2022-12-18T12:19:25.489Z,-1.00
2022-12-18T12:22:04.521Z,-0.98
2022-12-18T12:24:50.354Z,-0.98
2022-12-18T12:27:35.947Z,-1.01
2022-12-18T12:30:17.283Z,-0.98
2022-12-18T12:33:14.963Z,-0.93
2022-12-18T12:35:52.322Z,-0.94
2022-12-18T12:38:28.106Z,-1.02
2022-12-18T12:41:03.504Z,-1.10
2022-12-18T12:43:49.669Z,-1.09
2022-12-18T12:46:20.719Z,-1.04
2022-12-18T12:49:05.158Z,-1.04
2022-12-18T12:51:38.126Z,-1.10
2022-12-18T12:54:12.771Z,-1.12
2022-12-18T12:56:59.485Z,-1.04
2022-12-18T12:59:39.568Z,-0.99
2022-12-18T13:02:25.884Z,-0.99
2022-12-18T13:05:08.058Z,-0.97
2022-12-18T13:08:07.590Z,-1.03
2022-12-18T13:10:37.403Z,-1.06
2022-12-18T13:13:17.934Z,-1.04
2022-12-18T13:16:05.868Z,-1.07
2022-12-18T13:18:33.796Z,-1.05
2022-12-18T13:21:03.231Z,-1.07
2022-12-18T13:23:37.512Z,-1.08
2022-12-18T13:26:07.471Z,-1.08
2022-12-18T13:28:34.508Z,-1.07
2022-12-18T13:31:02.623Z,-1.03
2022-12-18T13:33:29.856Z,-1.00
2022-12-18T13:36:14.246Z,-0.98
2022-12-18T13:38:42.864Z,-1.02
2022-12-18T13:41:15.747Z,-1.05
2022-12-18T13:43:47.204Z,-1.09
2022-12-18T13:46:20.411Z,-1.06
2022-12-18T13:48:56.437Z,-0.98
2022-12-18T13:51:24.943Z,-0.99
2022-12-18T13:53:55.281Z,-0.99
2022-12-18T13:56:31.400Z,-0.99
2022-12-18T13:59:14.476Z,-1.04
2022-12-18T14:01:53.922Z,-1.04
2022-12-18T14:04:26.063Z,-1.05
2022-12-18T14:06:56.905Z,-1.05
2022-12-18T14:09:30.884Z,-1.08
2022-12-18T14:12:19.491Z,-1.09
2022-12-18T14:14:48.823Z,-1.08
2022-12-18T14:17:17.115Z,-1.07
2022-12-18T14:19:47.510Z,-1.16
2022-12-18T14:22:30.275Z,-1.22
2022-12-18T14:25:16.301Z,-1.24
2022-12-18T14:27:46.631Z,-1.28
2022-12-18T14:30:44.059Z,-1.31
2022-12-18T14:33:16.938Z,-1.34
2022-12-18T14:35:55.710Z,-1.37
2022-12-18T14:38:33.634Z,-1.41
2022-12-18T14:41:14.168Z,-1.46
2022-12-18T14:43:48.911Z,-1.48
2022-12-18T14:46:36.537Z,-1.49
2022-12-18T14:49:37.684Z,-1.52
2022-12-18T14:52:07.086Z,-1.55
2022-12-18T14:54:37.787Z,-1.59
2022-12-18T14:57:25.917Z,-1.63
2022-12-18T14:59:53.013Z,-1.64
2022-12-18T15:02:26.087Z,-1.65
2022-12-18T15:05:12.710Z,-1.67
2022-12-18T15:07:54.634Z,-1.70
2022-12-18T15:10:24.349Z,-1.71
2022-12-18T15:13:08.538Z,-1.78
2022-12-18T15:15:38.608Z,-1.82
2022-12-18T15:18:08.383Z,-1.84
2022-12-18T15:20:43.335Z,-1.86
2022-12-18T15:23:33.814Z,-1.89
2022-12-18T15:26:09.838Z,-1.92
2022-12-18T15:28:40.105Z,-1.93
2022-12-18T15:31:11.967Z,-1.96
2022-12-18T15:33:42.661Z,-1.93
2022-12-18T15:36:12.085Z,-1.95
2022-12-18T15:38:38.925Z,-1.99
2022-12-18T15:41:08.945Z,-2.05
2022-12-18T15:43:40.229Z,-2.08
2022-12-18T15:46:13.973Z,-2.05
2022-12-18T15:48:46.419Z,-2.02
2022-12-18T15:51:21.192Z,-1.99
2022-12-18T15:53:54.874Z,-2.00
2022-12-18T15:56:40.609Z,-2.00
2022-12-18T15:59:30.840Z,-1.94
2022-12-18T16:01:57.702Z,-1.93
2022-12-18T16:04:26.316Z,-1.93
2022-12-18T16:09:40.028Z,-1.91
2022-12-18T16:12:14.942Z,-1.94
2022-12-18T16:14:41.840Z,-1.97
2022-12-18T16:17:11.958Z,-1.98
2022-12-18T16:19:38.736Z,-1.95
2022-12-18T16:22:06.606Z,-1.94
2022-12-18T16:24:36.916Z,-1.97
2022-12-18T16:27:04.047Z,-2.00
2022-12-18T16:29:30.982Z,-1.97
2022-12-18T16:32:00.141Z,-1.92
2022-12-18T16:34:29.957Z,-1.88
2022-12-18T16:37:08.268Z,-1.81
2022-12-18T16:39:35.964Z,-1.82
2022-12-18T16:42:17.419Z,-1.82
2022-12-18T16:44:45.446Z,-1.79
2022-12-18T16:47:15.109Z,-1.76
2022-12-18T16:49:45.233Z,-1.70
2022-12-18T16:52:12.602Z,-1.72
2022-12-18T16:54:39.305Z,-1.70
2022-12-18T16:57:07.773Z,-1.71
2022-12-18T16:59:37.323Z,-1.71
2022-12-18T17:02:05.844Z,-1.72
2022-12-18T17:04:33.630Z,-1.79
2022-12-18T17:07:00.367Z,-1.80
2022-12-18T17:09:32.061Z,-1.79
2022-12-18T17:12:03.936Z,-1.81
2022-12-18T17:14:32.919Z,-1.84
2022-12-18T17:17:20.284Z,-1.86
2022-12-18T17:19:47.061Z,-1.85
2022-12-18T17:22:13.733Z,-1.86
2022-12-18T17:24:40.523Z,-1.89
2022-12-18T17:27:08.836Z,-1.87
2022-12-18T17:29:35.787Z,-1.93
2022-12-18T17:32:02.624Z,-1.94
2022-12-18T17:34:30.002Z,-1.97
2022-12-18T17:36:57.853Z,-1.98
2022-12-18T17:39:28.643Z,-1.99
2022-12-18T17:41:57.294Z,-2.00
2022-12-18T17:44:26.632Z,-2.02
2022-12-18T17:46:53.515Z,-2.06
2022-12-18T17:49:21.263Z,-2.02
2022-12-18T17:51:48.990Z,-2.01
2022-12-18T17:54:15.767Z,-2.06
2022-12-18T17:56:42.648Z,-2.06
2022-12-18T17:59:09.668Z,-2.05
2022-12-18T18:01:43.775Z,-2.01
2022-12-18T18:04:12.050Z,-2.08
2022-12-18T18:06:39.602Z,-2.10
2022-12-18T18:09:16.295Z,-2.06
2022-12-18T18:12:04.123Z,-2.04
2022-12-18T18:14:31.411Z,-2.09
2022-12-18T18:17:04.027Z,-2.10
2022-12-18T18:19:31.999Z,-2.07
2022-12-18T18:21:58.958Z,-2.05
2022-12-18T18:24:28.238Z,-2.04
2022-12-18T18:26:56.454Z,-2.04
2022-12-18T18:29:26.582Z,-2.03
2022-12-18T18:31:54.238Z,-2.00
2022-12-18T18:34:27.720Z,-2.05
2022-12-18T18:36:54.507Z,-2.04
2022-12-18T18:39:21.331Z,-2.04
2022-12-18T18:41:51.030Z,-2.04
2022-12-18T18:44:20.534Z,-2.04
2022-12-18T18:46:57.699Z,-2.04
2022-12-18T18:49:27.305Z,-2.05
2022-12-18T18:51:55.273Z,-2.06
2022-12-18T18:54:22.233Z,-2.04
2022-12-18T18:59:37.151Z,-2.06
2022-12-18T19:02:05.031Z,-2.07
2022-12-18T19:04:33.745Z,-2.06
2022-12-18T19:07:00.602Z,-2.02
2022-12-18T19:09:28.587Z,-2.05
2022-12-18T19:12:15.080Z,-2.06
2022-12-18T19:14:42.440Z,-2.05
2022-12-18T19:17:10.024Z,-2.06
2022-12-18T19:19:36.756Z,-2.07
2022-12-18T19:22:03.679Z,-2.06
2022-12-18T19:24:30.733Z,-2.04
2022-12-18T19:26:58.237Z,-2.09
2022-12-18T19:29:25.266Z,-2.16
2022-12-18T19:31:52.184Z,-2.12
2022-12-18T19:34:19.164Z,-2.10
2022-12-18T19:36:46.512Z,-2.08
2022-12-18T19:39:17.099Z,-2.05
2022-12-18T19:41:44.271Z,-2.06
2022-12-18T19:44:13.696Z,-2.04
2022-12-18T19:46:41.817Z,-2.03
2022-12-18T19:49:18.005Z,-2.05
2022-12-18T19:51:47.811Z,-2.07
2022-12-18T19:54:17.866Z,-2.07
2022-12-18T19:56:45.828Z,-2.03
2022-12-18T19:59:12.945Z,-2.07
2022-12-18T20:01:40.771Z,-2.06
2022-12-18T20:04:08.070Z,-2.04
2022-12-18T20:06:50.433Z,-1.99
2022-12-18T20:09:17.906Z,-1.98
2022-12-18T20:11:46.131Z,-1.97
2022-12-18T20:14:19.676Z,-1.92
2022-12-18T20:16:51.994Z,-1.92
2022-12-18T20:19:19.485Z,-1.92
2022-12-18T20:21:46.308Z,-1.94
2022-12-18T20:24:13.358Z,-1.94
2022-12-18T20:26:40.574Z,-1.86
2022-12-18T20:29:07.623Z,-1.93
2022-12-18T20:31:34.605Z,-1.95
2022-12-18T20:34:03.578Z,-1.98
2022-12-18T20:36:34.311Z,-1.99
2022-12-18T20:39:07.531Z,-1.98
2022-12-18T20:41:38.392Z,-1.99
2022-12-18T20:44:21.738Z,-1.98
2022-12-18T20:46:56.197Z,-1.95
2022-12-18T20:49:24.730Z,-1.96
2022-12-18T20:51:53.231Z,-1.99
2022-12-18T20:54:21.362Z,-1.96
2022-12-18T20:56:48.088Z,-1.93
2022-12-18T20:59:14.846Z,-1.88
2022-12-18T21:01:46.020Z,-1.83
2022-12-18T21:04:15.992Z,-1.81
2022-12-18T21:06:49.630Z,-1.85
2022-12-18T21:09:19.177Z,-1.92
2022-12-18T21:12:04.688Z,-1.94
2022-12-18T21:14:31.549Z,-2.00
2022-12-18T21:17:00.933Z,-2.03
2022-12-18T21:19:28.482Z,-2.08
2022-12-18T21:21:56.463Z,-2.08
2022-12-18T21:24:23.583Z,-2.05
2022-12-18T21:26:50.435Z,-2.05
2022-12-18T21:29:20.337Z,-2.05
2022-12-18T21:31:47.513Z,-2.06
2022-12-18T21:34:19.958Z,-2.06
2022-12-18T21:36:47.416Z,-2.01
2022-12-18T21:39:15.342Z,-2.03
2022-12-18T21:42:00.849Z,-2.01
2022-12-18T21:44:27.883Z,-1.93
2022-12-18T21:46:59.827Z,-1.95
2022-12-18T21:49:28.384Z,-1.92
2022-12-18T21:51:57.210Z,-1.86
2022-12-18T21:54:25.329Z,-1.82
2022-12-18T21:56:53.307Z,-1.81
2022-12-18T21:59:25.895Z,-1.81
2022-12-18T22:01:55.106Z,-1.79
2022-12-18T22:04:23.293Z,-1.77
2022-12-18T22:06:50.492Z,-1.75
2022-12-18T22:09:20.931Z,-1.72
2022-12-18T22:11:49.018Z,-1.69
2022-12-18T22:14:16.653Z,-1.68
2022-12-18T22:16:43.598Z,-1.67
2022-12-18T22:19:12.074Z,-1.69
2022-12-18T22:21:43.602Z,-1.69
2022-12-18T22:24:21.466Z,-1.65
2022-12-18T22:26:50.069Z,-1.62
2022-12-18T22:29:37.659Z,-1.61
2022-12-18T22:32:06.152Z,-1.64
2022-12-18T22:34:36.603Z,-1.69
2022-12-18T22:37:03.558Z,-1.68
2022-12-18T22:39:31.365Z,-1.67
2022-12-18T22:41:59.027Z,-1.63
2022-12-18T22:44:26.203Z,-1.64
2022-12-18T22:47:05.966Z,-1.62
2022-12-18T22:49:35.124Z,-1.63
2022-12-18T22:52:06.083Z,-1.63
2022-12-18T22:54:32.849Z,-1.66
2022-12-18T22:56:59.600Z,-1.72
2022-12-18T22:59:26.258Z,-1.73
2022-12-18T23:01:58.496Z,-1.71
2022-12-18T23:04:29.294Z,-1.70
2022-12-18T23:07:05.089Z,-1.70
2022-12-18T23:09:32.455Z,-1.66
2022-12-18T23:11:59.334Z,-1.61
2022-12-18T23:14:26.470Z,-1.59
2022-12-18T23:16:53.411Z,-1.56
2022-12-18T23:19:21.018Z,-1.56
2022-12-18T23:21:51.095Z,-1.58
2022-12-18T23:24:18.104Z,-1.57
2022-12-18T23:26:44.907Z,-1.60
2022-12-18T23:29:11.680Z,-1.59
2022-12-18T23:31:39.613Z,-1.55
2022-12-18T23:34:07.577Z,-1.58
2022-12-18T23:36:45.933Z,-1.56
2022-12-18T23:39:24.379Z,-1.54
2022-12-18T23:41:58.270Z,-1.57
2022-12-18T23:44:25.875Z,-1.58
2022-12-18T23:46:52.956Z,-1.56
2022-12-18T23:49:19.989Z,-1.58
2022-12-18T23:51:46.763Z,-1.56
2022-12-18T23:54:13.555Z,-1.53
2022-12-18T23:56:40.388Z,-1.53
2022-12-18T23:59:07.246Z,-1.53
